Sacramento, California
Traffic Map
Current Weather Conditions
Sacramento, California
Broken Clouds
Broken Clouds
69°
Feels Like: 69°
Wind Chill: 69° Ceiling: 4100
Heat Index: 69° Visibility: 10mi
Dew Point: 56° Wind: 12mph
Humidity: 63% Direction: 190° (S)
Pressure: 30.03in Gusts: 23mph
Raw Report DataKSAC 251953Z 19010G20KT 10SM SCT030 BKN041 21/13 A3003 RMK AO2 SLP170 T02060133
Traffic Incident Summary
Active as of:
Severity:
Category:
InformationThere was an issue retrieving the traffic information for this location. Please try a different location or try again shortly.
Advertisements
Track Severe Weather on mobile